sensor_id;sensor_type;location;lat;lon;timestamp;P1;durP1;ratioP1;P2;durP2;ratioP2
23117;SDS011;11728;50.624;6.014;2023-01-09T00:04:56;0.52;;;0.20;;
23117;SDS011;11728;50.624;6.014;2023-01-09T00:10:16;0.38;;;0.30;;
23117;SDS011;11728;50.624;6.014;2023-01-09T00:15:38;1.42;;;0.43;;
23117;SDS011;11728;50.624;6.014;2023-01-09T00:21:00;1.35;;;0.30;;
23117;SDS011;11728;50.624;6.014;2023-01-09T00:26:22;1.27;;;0.30;;
23117;SDS011;11728;50.624;6.014;2023-01-09T00:31:42;0.65;;;0.20;;
23117;SDS011;11728;50.624;6.014;2023-01-09T00:37:03;0.70;;;0.30;;
23117;SDS011;11728;50.624;6.014;2023-01-09T00:42:31;1.65;;;0.20;;
23117;SDS011;11728;50.624;6.014;2023-01-09T00:47:53;1.38;;;0.30;;
23117;SDS011;11728;50.624;6.014;2023-01-09T00:53:19;1.27;;;0.30;;
23117;SDS011;11728;50.624;6.014;2023-01-09T00:58:42;1.23;;;0.30;;
23117;SDS011;11728;50.624;6.014;2023-01-09T01:04:04;0.55;;;0.20;;
23117;SDS011;11728;50.624;6.014;2023-01-09T01:09:45;0.75;;;0.30;;
23117;SDS011;11728;50.624;6.014;2023-01-09T01:15:07;0.20;;;0.20;;
23117;SDS011;11728;50.624;6.014;2023-01-09T01:20:29;1.02;;;0.28;;
23117;SDS011;11728;50.624;6.014;2023-01-09T01:25:50;0.30;;;0.20;;
23117;SDS011;11728;50.624;6.014;2023-01-09T01:31:15;3.03;;;0.40;;
23117;SDS011;11728;50.624;6.014;2023-01-09T01:36:37;2.22;;;0.50;;
23117;SDS011;11728;50.624;6.014;2023-01-09T01:41:57;1.50;;;0.40;;
23117;SDS011;11728;50.624;6.014;2023-01-09T01:47:18;0.65;;;0.40;;
23117;SDS011;11728;50.624;6.014;2023-01-09T01:52:41;2.25;;;0.50;;
23117;SDS011;11728;50.624;6.014;2023-01-09T01:58:07;3.60;;;0.77;;
23117;SDS011;11728;50.624;6.014;2023-01-09T02:03:30;1.75;;;0.60;;
23117;SDS011;11728;50.624;6.014;2023-01-09T02:08:52;2.38;;;0.80;;
23117;SDS011;11728;50.624;6.014;2023-01-09T02:14:14;4.78;;;0.82;;
23117;SDS011;11728;50.624;6.014;2023-01-09T02:36:17;7.35;;;0.90;;
23117;SDS011;11728;50.624;6.014;2023-01-09T02:47:40;5.00;;;0.80;;
23117;SDS011;11728;50.624;6.014;2023-01-09T03:04:09;6.03;;;0.95;;
23117;SDS011;11728;50.624;6.014;2023-01-09T03:09:53;6.78;;;0.90;;
23117;SDS011;11728;50.624;6.014;2023-01-09T03:15:21;5.93;;;0.98;;
23117;SDS011;11728;50.624;6.014;2023-01-09T03:20:46;3.55;;;1.33;;
23117;SDS011;11728;50.624;6.014;2023-01-09T03:26:09;4.15;;;0.90;;
23117;SDS011;11728;50.624;6.014;2023-01-09T03:31:30;6.07;;;0.90;;
23117;SDS011;11728;50.624;6.014;2023-01-09T03:36:51;9.15;;;0.80;;
23117;SDS011;11728;50.624;6.014;2023-01-09T03:42:12;7.03;;;0.98;;
23117;SDS011;11728;50.624;6.014;2023-01-09T03:47:33;6.38;;;1.08;;
23117;SDS011;11728;50.624;6.014;2023-01-09T03:52:53;8.70;;;1.05;;
23117;SDS011;11728;50.624;6.014;2023-01-09T03:58:14;3.35;;;0.68;;
23117;SDS011;11728;50.624;6.014;2023-01-09T04:03:36;5.65;;;0.88;;
23117;SDS011;11728;50.624;6.014;2023-01-09T04:08:57;6.28;;;1.02;;
23117;SDS011;11728;50.624;6.014;2023-01-09T04:14:17;3.97;;;0.80;;
23117;SDS011;11728;50.624;6.014;2023-01-09T04:19:38;5.32;;;1.10;;
23117;SDS011;11728;50.624;6.014;2023-01-09T04:24:59;9.98;;;1.13;;
23117;SDS011;11728;50.624;6.014;2023-01-09T04:30:20;7.75;;;1.60;;
23117;SDS011;11728;50.624;6.014;2023-01-09T04:35:41;8.05;;;1.27;;
23117;SDS011;11728;50.624;6.014;2023-01-09T04:41:01;4.78;;;0.80;;
23117;SDS011;11728;50.624;6.014;2023-01-09T04:46:22;6.40;;;1.00;;
23117;SDS011;11728;50.624;6.014;2023-01-09T04:51:43;5.25;;;1.00;;
23117;SDS011;11728;50.624;6.014;2023-01-09T04:57:04;3.47;;;0.82;;
23117;SDS011;11728;50.624;6.014;2023-01-09T05:02:25;3.15;;;1.10;;
23117;SDS011;11728;50.624;6.014;2023-01-09T05:07:46;4.90;;;1.10;;
23117;SDS011;11728;50.624;6.014;2023-01-09T05:13:06;5.25;;;1.17;;
23117;SDS011;11728;50.624;6.014;2023-01-09T05:18:27;7.60;;;1.25;;
23117;SDS011;11728;50.624;6.014;2023-01-09T05:23:48;8.77;;;1.13;;
23117;SDS011;11728;50.624;6.014;2023-01-09T05:29:09;6.60;;;1.40;;
23117;SDS011;11728;50.624;6.014;2023-01-09T05:34:30;5.35;;;1.48;;
23117;SDS011;11728;50.624;6.014;2023-01-09T05:39:51;8.00;;;1.48;;
23117;SDS011;11728;50.624;6.014;2023-01-09T05:45:12;4.88;;;0.90;;
23117;SDS011;11728;50.624;6.014;2023-01-09T05:50:32;8.38;;;1.20;;
23117;SDS011;11728;50.624;6.014;2023-01-09T05:55:53;6.85;;;1.63;;
23117;SDS011;11728;50.624;6.014;2023-01-09T06:01:14;5.25;;;1.10;;
23117;SDS011;11728;50.624;6.014;2023-01-09T06:06:35;5.47;;;1.35;;
23117;SDS011;11728;50.624;6.014;2023-01-09T06:11:56;4.88;;;1.05;;
23117;SDS011;11728;50.624;6.014;2023-01-09T06:17:17;4.80;;;1.10;;
23117;SDS011;11728;50.624;6.014;2023-01-09T06:22:38;6.90;;;1.25;;
23117;SDS011;11728;50.624;6.014;2023-01-09T06:27:59;5.18;;;1.38;;
23117;SDS011;11728;50.624;6.014;2023-01-09T06:33:20;8.57;;;1.40;;
23117;SDS011;11728;50.624;6.014;2023-01-09T06:38:40;7.22;;;1.67;;
23117;SDS011;11728;50.624;6.014;2023-01-09T06:44:01;11.63;;;1.20;;
23117;SDS011;11728;50.624;6.014;2023-01-09T06:49:22;4.82;;;1.30;;
23117;SDS011;11728;50.624;6.014;2023-01-09T06:54:44;9.77;;;1.30;;
23117;SDS011;11728;50.624;6.014;2023-01-09T07:00:05;6.05;;;1.58;;
23117;SDS011;11728;50.624;6.014;2023-01-09T07:05:26;5.20;;;1.13;;
23117;SDS011;11728;50.624;6.014;2023-01-09T07:10:47;7.18;;;1.20;;
23117;SDS011;11728;50.624;6.014;2023-01-09T07:16:08;10.60;;;1.45;;
23117;SDS011;11728;50.624;6.014;2023-01-09T07:21:29;8.23;;;1.27;;
23117;SDS011;11728;50.624;6.014;2023-01-09T07:26:50;8.82;;;1.50;;
23117;SDS011;11728;50.624;6.014;2023-01-09T07:32:10;4.97;;;1.10;;
23117;SDS011;11728;50.624;6.014;2023-01-09T07:37:31;7.53;;;1.10;;
23117;SDS011;11728;50.624;6.014;2023-01-09T07:42:52;5.57;;;1.27;;
23117;SDS011;11728;50.624;6.014;2023-01-09T07:48:13;6.43;;;0.90;;
23117;SDS011;11728;50.624;6.014;2023-01-09T07:53:34;4.07;;;0.93;;
23117;SDS011;11728;50.624;6.014;2023-01-09T07:58:55;6.13;;;1.08;;
23117;SDS011;11728;50.624;6.014;2023-01-09T08:04:15;3.42;;;0.70;;
23117;SDS011;11728;50.624;6.014;2023-01-09T08:09:36;2.35;;;0.90;;
23117;SDS011;11728;50.624;6.014;2023-01-09T08:14:58;6.82;;;1.10;;
23117;SDS011;11728;50.624;6.014;2023-01-09T08:20:19;6.00;;;1.05;;
23117;SDS011;11728;50.624;6.014;2023-01-09T08:25:40;3.00;;;0.60;;
23117;SDS011;11728;50.624;6.014;2023-01-09T08:31:00;3.33;;;1.08;;
23117;SDS011;11728;50.624;6.014;2023-01-09T08:36:21;5.05;;;0.85;;
23117;SDS011;11728;50.624;6.014;2023-01-09T08:41:42;4.65;;;0.80;;
23117;SDS011;11728;50.624;6.014;2023-01-09T08:47:22;5.75;;;0.95;;
23117;SDS011;11728;50.624;6.014;2023-01-09T08:52:43;4.40;;;0.82;;
23117;SDS011;11728;50.624;6.014;2023-01-09T08:58:04;3.85;;;1.00;;
23117;SDS011;11728;50.624;6.014;2023-01-09T09:03:25;5.45;;;0.80;;
23117;SDS011;11728;50.624;6.014;2023-01-09T09:08:46;4.22;;;1.00;;
23117;SDS011;11728;50.624;6.014;2023-01-09T09:14:07;6.03;;;1.00;;
23117;SDS011;11728;50.624;6.014;2023-01-09T09:19:47;3.35;;;0.75;;
23117;SDS011;11728;50.624;6.014;2023-01-09T09:25:08;4.72;;;0.90;;
23117;SDS011;11728;50.624;6.014;2023-01-09T09:30:28;3.78;;;0.63;;
23117;SDS011;11728;50.624;6.014;2023-01-09T09:35:49;2.42;;;0.57;;
23117;SDS011;11728;50.624;6.014;2023-01-09T09:41:20;4.05;;;0.65;;
23117;SDS011;11728;50.624;6.014;2023-01-09T09:47:18;2.42;;;0.75;;
23117;SDS011;11728;50.624;6.014;2023-01-09T09:58:35;2.65;;;0.68;;
23117;SDS011;11728;50.624;6.014;2023-01-09T10:03:58;3.17;;;0.82;;
23117;SDS011;11728;50.624;6.014;2023-01-09T10:15:16;2.95;;;0.57;;
23117;SDS011;11728;50.624;6.014;2023-01-09T10:21:10;3.85;;;0.40;;
23117;SDS011;11728;50.624;6.014;2023-01-09T10:26:45;3.47;;;0.70;;
23117;SDS011;11728;50.624;6.014;2023-01-09T10:32:20;3.28;;;0.50;;
23117;SDS011;11728;50.624;6.014;2023-01-09T10:37:50;3.78;;;0.70;;
23117;SDS011;11728;50.624;6.014;2023-01-09T10:48:50;3.97;;;0.63;;
23117;SDS011;11728;50.624;6.014;2023-01-09T10:54:16;1.58;;;0.60;;
23117;SDS011;11728;50.624;6.014;2023-01-09T10:59:41;2.08;;;0.32;;
23117;SDS011;11728;50.624;6.014;2023-01-09T11:05:02;2.67;;;0.22;;
23117;SDS011;11728;50.624;6.014;2023-01-09T11:10:23;1.08;;;0.25;;
23117;SDS011;11728;50.624;6.014;2023-01-09T11:16:06;1.42;;;0.30;;
23117;SDS011;11728;50.624;6.014;2023-01-09T11:21:34;2.15;;;0.20;;
23117;SDS011;11728;50.624;6.014;2023-01-09T11:32:43;1.42;;;0.30;;
23117;SDS011;11728;50.624;6.014;2023-01-09T11:38:15;1.75;;;0.30;;
23117;SDS011;11728;50.624;6.014;2023-01-09T11:43:37;0.90;;;0.30;;
23117;SDS011;11728;50.624;6.014;2023-01-09T11:48:59;1.52;;;0.60;;
23117;SDS011;11728;50.624;6.014;2023-01-09T11:59:47;3.08;;;0.43;;
23117;SDS011;11728;50.624;6.014;2023-01-09T12:05:20;1.33;;;0.30;;
23117;SDS011;11728;50.624;6.014;2023-01-09T12:16:41;1.60;;;0.40;;
23117;SDS011;11728;50.624;6.014;2023-01-09T12:40:16;1.02;;;0.30;;
23117;SDS011;11728;50.624;6.014;2023-01-09T12:51:40;3.08;;;0.60;;
23117;SDS011;11728;50.624;6.014;2023-01-09T13:07:59;1.95;;;0.65;;
23117;SDS011;11728;50.624;6.014;2023-01-09T13:19:16;1.48;;;0.70;;
23117;SDS011;11728;50.624;6.014;2023-01-09T13:25:43;6.75;;;2.78;;
23117;SDS011;11728;50.624;6.014;2023-01-09T13:36:37;1.20;;;0.50;;
23117;SDS011;11728;50.624;6.014;2023-01-09T13:42:06;3.95;;;0.50;;
23117;SDS011;11728;50.624;6.014;2023-01-09T13:59:01;1.92;;;0.43;;
23117;SDS011;11728;50.624;6.014;2023-01-09T14:09:51;0.85;;;0.40;;
23117;SDS011;11728;50.624;6.014;2023-01-09T14:20:53;4.28;;;0.60;;
23117;SDS011;11728;50.624;6.014;2023-01-09T14:37:42;3.63;;;1.03;;
23117;SDS011;11728;50.624;6.014;2023-01-09T14:43:19;2.72;;;1.08;;
23117;SDS011;11728;50.624;6.014;2023-01-09T14:48:49;3.10;;;1.00;;
23117;SDS011;11728;50.624;6.014;2023-01-09T14:59:59;2.83;;;0.98;;
23117;SDS011;11728;50.624;6.014;2023-01-09T15:05:22;1.83;;;0.90;;
23117;SDS011;11728;50.624;6.014;2023-01-09T15:10:45;3.08;;;1.00;;
23117;SDS011;11728;50.624;6.014;2023-01-09T15:16:16;2.63;;;1.10;;
23117;SDS011;11728;50.624;6.014;2023-01-09T15:21:39;13.52;;;6.38;;
23117;SDS011;11728;50.624;6.014;2023-01-09T15:27:10;3.67;;;1.00;;
23117;SDS011;11728;50.624;6.014;2023-01-09T15:32:35;4.90;;;1.50;;
23117;SDS011;11728;50.624;6.014;2023-01-09T15:37:55;3.90;;;1.10;;
23117;SDS011;11728;50.624;6.014;2023-01-09T15:43:17;6.70;;;1.30;;
23117;SDS011;11728;50.624;6.014;2023-01-09T15:48:38;5.68;;;1.30;;
23117;SDS011;11728;50.624;6.014;2023-01-09T15:53:59;6.15;;;1.40;;
23117;SDS011;11728;50.624;6.014;2023-01-09T15:59:24;8.48;;;1.63;;
23117;SDS011;11728;50.624;6.014;2023-01-09T16:04:47;5.80;;;1.55;;
23117;SDS011;11728;50.624;6.014;2023-01-09T16:10:19;13.00;;;1.70;;
23117;SDS011;11728;50.624;6.014;2023-01-09T16:15:42;5.88;;;1.30;;
23117;SDS011;11728;50.624;6.014;2023-01-09T16:26:31;7.93;;;1.85;;
23117;SDS011;11728;50.624;6.014;2023-01-09T16:32:03;7.28;;;1.63;;
23117;SDS011;11728;50.624;6.014;2023-01-09T16:37:25;5.30;;;1.58;;
23117;SDS011;11728;50.624;6.014;2023-01-09T16:42:47;7.68;;;1.67;;
23117;SDS011;11728;50.624;6.014;2023-01-09T16:48:20;9.07;;;2.22;;
23117;SDS011;11728;50.624;6.014;2023-01-09T16:53:41;6.97;;;1.70;;
23117;SDS011;11728;50.624;6.014;2023-01-09T16:59:02;6.03;;;1.52;;
23117;SDS011;11728;50.624;6.014;2023-01-09T17:04:23;7.50;;;1.80;;
23117;SDS011;11728;50.624;6.014;2023-01-09T17:09:44;8.32;;;1.90;;
23117;SDS011;11728;50.624;6.014;2023-01-09T17:15:06;7.15;;;1.67;;
23117;SDS011;11728;50.624;6.014;2023-01-09T17:20:27;8.35;;;2.25;;
23117;SDS011;11728;50.624;6.014;2023-01-09T17:25:49;6.55;;;1.98;;
23117;SDS011;11728;50.624;6.014;2023-01-09T17:31:31;6.50;;;2.13;;
23117;SDS011;11728;50.624;6.014;2023-01-09T17:36:52;3.85;;;1.40;;
23117;SDS011;11728;50.624;6.014;2023-01-09T17:42:15;5.88;;;1.40;;
23117;SDS011;11728;50.624;6.014;2023-01-09T17:47:35;3.72;;;1.20;;
23117;SDS011;11728;50.624;6.014;2023-01-09T17:52:56;5.82;;;1.20;;
23117;SDS011;11728;50.624;6.014;2023-01-09T17:58:21;4.25;;;1.15;;
23117;SDS011;11728;50.624;6.014;2023-01-09T18:03:45;2.40;;;1.27;;
23117;SDS011;11728;50.624;6.014;2023-01-09T18:09:09;3.50;;;1.30;;
23117;SDS011;11728;50.624;6.014;2023-01-09T18:14:35;5.38;;;1.35;;
23117;SDS011;11728;50.624;6.014;2023-01-09T18:19:57;6.15;;;1.70;;
23117;SDS011;11728;50.624;6.014;2023-01-09T18:25:18;7.70;;;1.80;;
23117;SDS011;11728;50.624;6.014;2023-01-09T18:30:39;6.13;;;2.50;;
23117;SDS011;11728;50.624;6.014;2023-01-09T18:36:04;5.43;;;2.75;;
23117;SDS011;11728;50.624;6.014;2023-01-09T18:41:26;8.32;;;3.58;;
23117;SDS011;11728;50.624;6.014;2023-01-09T18:46:48;9.70;;;4.15;;
23117;SDS011;11728;50.624;6.014;2023-01-09T18:52:09;10.10;;;4.07;;
23117;SDS011;11728;50.624;6.014;2023-01-09T18:57:29;10.43;;;4.70;;
23117;SDS011;11728;50.624;6.014;2023-01-09T19:02:50;8.73;;;5.20;;
23117;SDS011;11728;50.624;6.014;2023-01-09T19:08:11;8.98;;;5.18;;
23117;SDS011;11728;50.624;6.014;2023-01-09T19:13:33;12.18;;;6.15;;
23117;SDS011;11728;50.624;6.014;2023-01-09T19:18:55;11.27;;;6.57;;
23117;SDS011;11728;50.624;6.014;2023-01-09T19:24:18;8.85;;;4.65;;
23117;SDS011;11728;50.624;6.014;2023-01-09T19:29:39;8.27;;;4.65;;
23117;SDS011;11728;50.624;6.014;2023-01-09T19:35:00;8.18;;;4.22;;
23117;SDS011;11728;50.624;6.014;2023-01-09T19:40:21;8.73;;;4.13;;
23117;SDS011;11728;50.624;6.014;2023-01-09T19:45:42;8.93;;;2.72;;
23117;SDS011;11728;50.624;6.014;2023-01-09T19:51:03;6.35;;;2.40;;
23117;SDS011;11728;50.624;6.014;2023-01-09T19:56:26;4.70;;;1.98;;
23117;SDS011;11728;50.624;6.014;2023-01-09T20:01:49;3.65;;;1.60;;
23117;SDS011;11728;50.624;6.014;2023-01-09T20:07:10;2.92;;;1.45;;
23117;SDS011;11728;50.624;6.014;2023-01-09T20:12:31;5.68;;;1.88;;
23117;SDS011;11728;50.624;6.014;2023-01-09T20:17:52;4.50;;;1.75;;
23117;SDS011;11728;50.624;6.014;2023-01-09T20:23:13;3.97;;;1.90;;
23117;SDS011;11728;50.624;6.014;2023-01-09T20:28:37;3.30;;;1.75;;
23117;SDS011;11728;50.624;6.014;2023-01-09T20:33:58;4.32;;;1.88;;
23117;SDS011;11728;50.624;6.014;2023-01-09T20:39:19;3.88;;;1.80;;
23117;SDS011;11728;50.624;6.014;2023-01-09T20:44:40;4.78;;;2.00;;
23117;SDS011;11728;50.624;6.014;2023-01-09T20:50:01;5.38;;;2.00;;
23117;SDS011;11728;50.624;6.014;2023-01-09T20:55:22;3.72;;;1.90;;
23117;SDS011;11728;50.624;6.014;2023-01-09T21:00:43;7.82;;;2.50;;
23117;SDS011;11728;50.624;6.014;2023-01-09T21:06:07;7.35;;;2.95;;
23117;SDS011;11728;50.624;6.014;2023-01-09T21:11:30;5.68;;;2.80;;
23117;SDS011;11728;50.624;6.014;2023-01-09T21:16:51;8.00;;;3.78;;
23117;SDS011;11728;50.624;6.014;2023-01-09T21:22:12;9.25;;;4.05;;
23117;SDS011;11728;50.624;6.014;2023-01-09T21:27:36;9.73;;;3.90;;
23117;SDS011;11728;50.624;6.014;2023-01-09T21:32:59;7.53;;;3.47;;
23117;SDS011;11728;50.624;6.014;2023-01-09T21:38:20;7.60;;;3.17;;
23117;SDS011;11728;50.624;6.014;2023-01-09T21:43:42;9.23;;;3.60;;
23117;SDS011;11728;50.624;6.014;2023-01-09T21:49:22;6.97;;;3.70;;
23117;SDS011;11728;50.624;6.014;2023-01-09T21:54:45;10.32;;;3.97;;
23117;SDS011;11728;50.624;6.014;2023-01-09T22:00:06;6.80;;;3.22;;
23117;SDS011;11728;50.624;6.014;2023-01-09T22:05:34;9.07;;;3.35;;
23117;SDS011;11728;50.624;6.014;2023-01-09T22:10:55;7.15;;;2.78;;
23117;SDS011;11728;50.624;6.014;2023-01-09T22:16:19;9.82;;;2.88;;
23117;SDS011;11728;50.624;6.014;2023-01-09T22:21:40;12.20;;;3.45;;
23117;SDS011;11728;50.624;6.014;2023-01-09T22:27:00;9.05;;;3.13;;
23117;SDS011;11728;50.624;6.014;2023-01-09T22:32:21;8.80;;;2.45;;
23117;SDS011;11728;50.624;6.014;2023-01-09T22:37:42;13.25;;;3.13;;
23117;SDS011;11728;50.624;6.014;2023-01-09T22:43:03;11.77;;;2.20;;
23117;SDS011;11728;50.624;6.014;2023-01-09T22:48:25;8.35;;;2.05;;
23117;SDS011;11728;50.624;6.014;2023-01-09T22:53:48;9.05;;;2.38;;
23117;SDS011;11728;50.624;6.014;2023-01-09T22:59:10;14.75;;;2.45;;
23117;SDS011;11728;50.624;6.014;2023-01-09T23:04:30;7.25;;;2.08;;
23117;SDS011;11728;50.624;6.014;2023-01-09T23:09:51;12.43;;;2.45;;
23117;SDS011;11728;50.624;6.014;2023-01-09T23:15:15;11.32;;;2.50;;
23117;SDS011;11728;50.624;6.014;2023-01-09T23:20:36;9.13;;;2.75;;
23117;SDS011;11728;50.624;6.014;2023-01-09T23:25:58;8.40;;;2.10;;
23117;SDS011;11728;50.624;6.014;2023-01-09T23:31:21;11.90;;;2.78;;
23117;SDS011;11728;50.624;6.014;2023-01-09T23:36:42;10.20;;;3.00;;
23117;SDS011;11728;50.624;6.014;2023-01-09T23:42:03;8.45;;;2.67;;
23117;SDS011;11728;50.624;6.014;2023-01-09T23:47:43;10.00;;;3.40;;
23117;SDS011;11728;50.624;6.014;2023-01-09T23:53:04;9.32;;;3.30;;
23117;SDS011;11728;50.624;6.014;2023-01-09T23:58:25;11.32;;;3.45;;
